sensor_id;sensor_type;location;lat;lon;timestamp;P1;durP1;ratioP1;P2;durP2;ratioP2
1026;SDS011;502;48.746;9.214;2023-07-28T00:00:49;3.90;;;3.57;;
1026;SDS011;502;48.746;9.214;2023-07-28T00:03:34;3.50;;;3.20;;
1026;SDS011;502;48.746;9.214;2023-07-28T00:06:19;3.67;;;3.17;;
1026;SDS011;502;48.746;9.214;2023-07-28T00:09:04;3.70;;;3.13;;
1026;SDS011;502;48.746;9.214;2023-07-28T00:11:51;4.37;;;3.97;;
1026;SDS011;502;48.746;9.214;2023-07-28T00:14:36;3.80;;;3.40;;
1026;SDS011;502;48.746;9.214;2023-07-28T00:17:21;4.30;;;3.90;;
1026;SDS011;502;48.746;9.214;2023-07-28T00:20:07;4.20;;;3.80;;
1026;SDS011;502;48.746;9.214;2023-07-28T00:22:53;4.53;;;3.57;;
1026;SDS011;502;48.746;9.214;2023-07-28T00:25:38;3.87;;;3.50;;
1026;SDS011;502;48.746;9.214;2023-07-28T00:28:25;3.60;;;3.07;;
1026;SDS011;502;48.746;9.214;2023-07-28T00:31:10;4.37;;;3.97;;
1026;SDS011;502;48.746;9.214;2023-07-28T00:33:56;3.47;;;3.10;;
1026;SDS011;502;48.746;9.214;2023-07-28T00:36:41;4.50;;;4.07;;
1026;SDS011;502;48.746;9.214;2023-07-28T00:39:26;4.00;;;3.60;;
1026;SDS011;502;48.746;9.214;2023-07-28T00:42:11;3.77;;;3.40;;
1026;SDS011;502;48.746;9.214;2023-07-28T00:44:59;3.70;;;3.40;;
1026;SDS011;502;48.746;9.214;2023-07-28T00:47:45;4.50;;;4.10;;
1026;SDS011;502;48.746;9.214;2023-07-28T00:50:30;4.10;;;3.40;;
1026;SDS011;502;48.746;9.214;2023-07-28T00:53:15;3.53;;;3.23;;
1026;SDS011;502;48.746;9.214;2023-07-28T00:56:01;3.60;;;3.30;;
1026;SDS011;502;48.746;9.214;2023-07-28T00:58:47;4.10;;;3.70;;
1026;SDS011;502;48.746;9.214;2023-07-28T01:01:34;3.50;;;3.20;;
1026;SDS011;502;48.746;9.214;2023-07-28T01:04:19;3.83;;;3.17;;
1026;SDS011;502;48.746;9.214;2023-07-28T01:07:07;4.13;;;3.47;;
1026;SDS011;502;48.746;9.214;2023-07-28T01:09:56;3.87;;;3.47;;
1026;SDS011;502;48.746;9.214;2023-07-28T01:12:46;4.30;;;3.90;;
1026;SDS011;502;48.746;9.214;2023-07-28T01:15:31;4.20;;;3.80;;
1026;SDS011;502;48.746;9.214;2023-07-28T01:18:18;4.40;;;4.00;;
1026;SDS011;502;48.746;9.214;2023-07-28T01:21:05;4.10;;;3.70;;
1026;SDS011;502;48.746;9.214;2023-07-28T01:23:52;4.00;;;3.60;;
1026;SDS011;502;48.746;9.214;2023-07-28T01:26:43;4.27;;;3.87;;
1026;SDS011;502;48.746;9.214;2023-07-28T01:29:28;3.50;;;3.20;;
1026;SDS011;502;48.746;9.214;2023-07-28T01:32:14;5.10;;;3.63;;
1026;SDS011;502;48.746;9.214;2023-07-28T01:34:59;6.03;;;3.90;;
1026;SDS011;502;48.746;9.214;2023-07-28T01:37:45;3.87;;;3.53;;
1026;SDS011;502;48.746;9.214;2023-07-28T01:40:34;3.83;;;3.20;;
1026;SDS011;502;48.746;9.214;2023-07-28T01:43:21;3.73;;;3.40;;
1026;SDS011;502;48.746;9.214;2023-07-28T01:46:06;4.13;;;3.50;;
1026;SDS011;502;48.746;9.214;2023-07-28T01:48:52;4.20;;;3.80;;
1026;SDS011;502;48.746;9.214;2023-07-28T01:51:37;4.40;;;3.43;;
1026;SDS011;502;48.746;9.214;2023-07-28T01:54:22;4.20;;;3.53;;
1026;SDS011;502;48.746;9.214;2023-07-28T01:57:07;4.10;;;3.63;;
1026;SDS011;502;48.746;9.214;2023-07-28T01:59:54;4.03;;;3.23;;
1026;SDS011;502;48.746;9.214;2023-07-28T02:02:39;4.50;;;3.80;;
1026;SDS011;502;48.746;9.214;2023-07-28T02:05:24;3.97;;;3.57;;
1026;SDS011;502;48.746;9.214;2023-07-28T02:08:10;3.50;;;3.20;;
1026;SDS011;502;48.746;9.214;2023-07-28T02:10:55;5.43;;;3.70;;
1026;SDS011;502;48.746;9.214;2023-07-28T02:13:41;3.77;;;3.40;;
1026;SDS011;502;48.746;9.214;2023-07-28T02:16:33;3.70;;;3.20;;
1026;SDS011;502;48.746;9.214;2023-07-28T02:19:18;3.27;;;3.03;;
1026;SDS011;502;48.746;9.214;2023-07-28T02:22:03;3.73;;;3.43;;
1026;SDS011;502;48.746;9.214;2023-07-28T02:24:49;4.10;;;3.70;;
1026;SDS011;502;48.746;9.214;2023-07-28T02:27:34;3.50;;;2.90;;
1026;SDS011;502;48.746;9.214;2023-07-28T02:30:20;3.70;;;3.30;;
1026;SDS011;502;48.746;9.214;2023-07-28T02:33:06;4.13;;;3.53;;
1026;SDS011;502;48.746;9.214;2023-07-28T02:35:52;4.03;;;3.17;;
1026;SDS011;502;48.746;9.214;2023-07-28T02:38:37;4.33;;;3.60;;
1026;SDS011;502;48.746;9.214;2023-07-28T02:41:22;3.70;;;3.40;;
1026;SDS011;502;48.746;9.214;2023-07-28T02:44:08;4.10;;;3.70;;
1026;SDS011;502;48.746;9.214;2023-07-28T02:46:54;4.03;;;3.63;;
1026;SDS011;502;48.746;9.214;2023-07-28T02:49:41;3.97;;;3.53;;
1026;SDS011;502;48.746;9.214;2023-07-28T02:52:28;3.90;;;3.50;;
1026;SDS011;502;48.746;9.214;2023-07-28T02:55:13;3.57;;;3.27;;
1026;SDS011;502;48.746;9.214;2023-07-28T02:57:58;5.53;;;3.33;;
1026;SDS011;502;48.746;9.214;2023-07-28T03:00:44;3.90;;;3.60;;
1026;SDS011;502;48.746;9.214;2023-07-28T03:03:31;3.73;;;3.40;;
1026;SDS011;502;48.746;9.214;2023-07-28T03:06:18;3.30;;;3.00;;
1026;SDS011;502;48.746;9.214;2023-07-28T03:09:03;3.20;;;2.90;;
1026;SDS011;502;48.746;9.214;2023-07-28T03:11:57;3.70;;;3.40;;
1026;SDS011;502;48.746;9.214;2023-07-28T03:14:43;4.20;;;3.50;;
1026;SDS011;502;48.746;9.214;2023-07-28T03:17:28;4.77;;;3.20;;
1026;SDS011;502;48.746;9.214;2023-07-28T03:20:14;3.93;;;3.23;;
1026;SDS011;502;48.746;9.214;2023-07-28T03:23:00;3.40;;;3.10;;
1026;SDS011;502;48.746;9.214;2023-07-28T03:25:46;3.93;;;3.40;;
1026;SDS011;502;48.746;9.214;2023-07-28T03:28:31;3.30;;;3.00;;
1026;SDS011;502;48.746;9.214;2023-07-28T03:31:17;3.40;;;2.87;;
1026;SDS011;502;48.746;9.214;2023-07-28T03:34:03;4.10;;;3.70;;
1026;SDS011;502;48.746;9.214;2023-07-28T03:36:49;3.60;;;3.03;;
1026;SDS011;502;48.746;9.214;2023-07-28T03:39:36;3.73;;;3.40;;
1026;SDS011;502;48.746;9.214;2023-07-28T03:42:21;3.60;;;3.13;;
1026;SDS011;502;48.746;9.214;2023-07-28T03:45:07;4.30;;;3.10;;
1026;SDS011;502;48.746;9.214;2023-07-28T03:47:53;3.50;;;3.20;;
1026;SDS011;502;48.746;9.214;2023-07-28T03:50:38;3.90;;;3.57;;
1026;SDS011;502;48.746;9.214;2023-07-28T03:53:24;4.13;;;3.73;;
1026;SDS011;502;48.746;9.214;2023-07-28T03:56:11;3.77;;;3.40;;
1026;SDS011;502;48.746;9.214;2023-07-28T03:58:56;5.13;;;3.90;;
1026;SDS011;502;48.746;9.214;2023-07-28T04:01:42;3.83;;;3.47;;
1026;SDS011;502;48.746;9.214;2023-07-28T04:04:27;5.17;;;3.80;;
1026;SDS011;502;48.746;9.214;2023-07-28T04:07:15;3.70;;;3.40;;
1026;SDS011;502;48.746;9.214;2023-07-28T04:10:00;4.00;;;3.60;;
1026;SDS011;502;48.746;9.214;2023-07-28T04:12:47;4.10;;;3.33;;
1026;SDS011;502;48.746;9.214;2023-07-28T04:15:33;5.20;;;3.73;;
1026;SDS011;502;48.746;9.214;2023-07-28T04:18:18;4.23;;;3.73;;
1026;SDS011;502;48.746;9.214;2023-07-28T04:21:07;3.33;;;3.03;;
1026;SDS011;502;48.746;9.214;2023-07-28T04:26:47;3.43;;;3.13;;
1026;SDS011;502;48.746;9.214;2023-07-28T04:29:35;3.10;;;2.80;;
1026;SDS011;502;48.746;9.214;2023-07-28T04:35:34;5.70;;;4.17;;
1026;SDS011;502;48.746;9.214;2023-07-28T04:38:42;4.03;;;3.63;;
1026;SDS011;502;48.746;9.214;2023-07-28T04:41:28;4.30;;;3.90;;
1026;SDS011;502;48.746;9.214;2023-07-28T04:44:13;9.73;;;5.07;;
1026;SDS011;502;48.746;9.214;2023-07-28T04:47:03;3.97;;;3.60;;
1026;SDS011;502;48.746;9.214;2023-07-28T04:49:48;3.43;;;3.13;;
1026;SDS011;502;48.746;9.214;2023-07-28T04:56:03;4.53;;;3.43;;
1026;SDS011;502;48.746;9.214;2023-07-28T04:58:52;4.10;;;3.70;;
1026;SDS011;502;48.746;9.214;2023-07-28T05:01:49;4.40;;;3.90;;
1026;SDS011;502;48.746;9.214;2023-07-28T05:04:36;3.80;;;3.50;;
1026;SDS011;502;48.746;9.214;2023-07-28T05:07:21;4.10;;;3.70;;
1026;SDS011;502;48.746;9.214;2023-07-28T05:10:07;3.43;;;3.13;;
1026;SDS011;502;48.746;9.214;2023-07-28T05:12:53;4.50;;;4.10;;
1026;SDS011;502;48.746;9.214;2023-07-28T05:15:38;4.23;;;3.83;;
1026;SDS011;502;48.746;9.214;2023-07-28T05:18:27;4.00;;;3.27;;
1026;SDS011;502;48.746;9.214;2023-07-28T05:21:35;4.07;;;3.47;;
1026;SDS011;502;48.746;9.214;2023-07-28T05:24:21;5.20;;;4.30;;
1026;SDS011;502;48.746;9.214;2023-07-28T05:27:06;5.10;;;4.07;;
1026;SDS011;502;48.746;9.214;2023-07-28T05:29:52;4.47;;;3.90;;
1026;SDS011;502;48.746;9.214;2023-07-28T05:32:37;4.80;;;4.30;;
1026;SDS011;502;48.746;9.214;2023-07-28T05:35:25;5.50;;;4.30;;
1026;SDS011;502;48.746;9.214;2023-07-28T05:38:12;5.20;;;4.70;;
1026;SDS011;502;48.746;9.214;2023-07-28T05:41:05;7.83;;;5.00;;
1026;SDS011;502;48.746;9.214;2023-07-28T05:43:50;4.30;;;3.90;;
1026;SDS011;502;48.746;9.214;2023-07-28T05:46:35;4.07;;;3.77;;
1026;SDS011;502;48.746;9.214;2023-07-28T05:49:21;3.97;;;3.57;;
1026;SDS011;502;48.746;9.214;2023-07-28T05:52:06;4.77;;;4.27;;
1026;SDS011;502;48.746;9.214;2023-07-28T05:54:53;5.97;;;4.60;;
1026;SDS011;502;48.746;9.214;2023-07-28T05:57:39;4.57;;;4.17;;
1026;SDS011;502;48.746;9.214;2023-07-28T06:00:26;6.83;;;4.03;;
1026;SDS011;502;48.746;9.214;2023-07-28T06:03:12;4.57;;;4.17;;
1026;SDS011;502;48.746;9.214;2023-07-28T06:06:17;5.70;;;4.87;;
1026;SDS011;502;48.746;9.214;2023-07-28T06:09:03;4.57;;;4.17;;
1026;SDS011;502;48.746;9.214;2023-07-28T06:11:49;5.40;;;4.90;;
1026;SDS011;502;48.746;9.214;2023-07-28T06:14:35;5.30;;;4.43;;
1026;SDS011;502;48.746;9.214;2023-07-28T06:17:22;5.13;;;4.43;;
1026;SDS011;502;48.746;9.214;2023-07-28T06:20:08;5.63;;;4.67;;
1026;SDS011;502;48.746;9.214;2023-07-28T06:22:54;5.10;;;4.53;;
1026;SDS011;502;48.746;9.214;2023-07-28T06:25:39;4.60;;;4.20;;
1026;SDS011;502;48.746;9.214;2023-07-28T06:28:29;4.67;;;4.27;;
1026;SDS011;502;48.746;9.214;2023-07-28T06:31:14;4.87;;;4.20;;
1026;SDS011;502;48.746;9.214;2023-07-28T06:34:18;4.50;;;3.90;;
1026;SDS011;502;48.746;9.214;2023-07-28T06:37:04;4.33;;;3.93;;
1026;SDS011;502;48.746;9.214;2023-07-28T06:39:50;4.80;;;4.23;;
1026;SDS011;502;48.746;9.214;2023-07-28T06:42:35;5.27;;;3.53;;
1026;SDS011;502;48.746;9.214;2023-07-28T06:45:22;4.50;;;4.10;;
1026;SDS011;502;48.746;9.214;2023-07-28T06:48:08;4.03;;;3.63;;
1026;SDS011;502;48.746;9.214;2023-07-28T06:50:53;4.00;;;3.60;;
1026;SDS011;502;48.746;9.214;2023-07-28T06:53:39;4.27;;;3.87;;
1026;SDS011;502;48.746;9.214;2023-07-28T06:56:25;4.90;;;3.60;;
1026;SDS011;502;48.746;9.214;2023-07-28T06:59:10;4.70;;;3.80;;
1026;SDS011;502;48.746;9.214;2023-07-28T07:01:56;4.37;;;3.97;;
1026;SDS011;502;48.746;9.214;2023-07-28T07:04:42;4.90;;;4.10;;
1026;SDS011;502;48.746;9.214;2023-07-28T07:07:28;6.50;;;4.80;;
1026;SDS011;502;48.746;9.214;2023-07-28T07:10:13;4.90;;;4.20;;
1026;SDS011;502;48.746;9.214;2023-07-28T07:12:59;4.70;;;4.30;;
1026;SDS011;502;48.746;9.214;2023-07-28T07:15:44;5.00;;;4.47;;
1026;SDS011;502;48.746;9.214;2023-07-28T07:18:31;5.10;;;4.60;;
1026;SDS011;502;48.746;9.214;2023-07-28T07:21:17;5.50;;;4.00;;
1026;SDS011;502;48.746;9.214;2023-07-28T07:24:02;4.57;;;4.13;;
1026;SDS011;502;48.746;9.214;2023-07-28T07:26:48;6.80;;;4.07;;
1026;SDS011;502;48.746;9.214;2023-07-28T07:29:34;5.03;;;4.00;;
1026;SDS011;502;48.746;9.214;2023-07-28T07:32:19;5.57;;;4.97;;
1026;SDS011;502;48.746;9.214;2023-07-28T07:35:07;4.73;;;4.30;;
1026;SDS011;502;48.746;9.214;2023-07-28T07:37:53;8.30;;;5.13;;
1026;SDS011;502;48.746;9.214;2023-07-28T07:40:38;7.60;;;5.10;;
1026;SDS011;502;48.746;9.214;2023-07-28T07:43:24;5.40;;;4.60;;
1026;SDS011;502;48.746;9.214;2023-07-28T07:46:10;5.90;;;4.80;;
1026;SDS011;502;48.746;9.214;2023-07-28T07:48:56;5.43;;;4.57;;
1026;SDS011;502;48.746;9.214;2023-07-28T07:51:42;7.57;;;4.90;;
1026;SDS011;502;48.746;9.214;2023-07-28T07:54:28;5.40;;;4.40;;
1026;SDS011;502;48.746;9.214;2023-07-28T07:57:13;5.20;;;4.70;;
1026;SDS011;502;48.746;9.214;2023-07-28T07:59:59;6.53;;;4.87;;
1026;SDS011;502;48.746;9.214;2023-07-28T08:02:44;4.93;;;4.43;;
1026;SDS011;502;48.746;9.214;2023-07-28T08:05:29;7.60;;;4.93;;
1026;SDS011;502;48.746;9.214;2023-07-28T08:08:16;5.43;;;4.93;;
1026;SDS011;502;48.746;9.214;2023-07-28T08:11:03;4.40;;;3.97;;
1026;SDS011;502;48.746;9.214;2023-07-28T08:13:48;5.50;;;4.70;;
1026;SDS011;502;48.746;9.214;2023-07-28T08:16:33;6.07;;;4.47;;
1026;SDS011;502;48.746;9.214;2023-07-28T08:19:19;4.70;;;4.30;;
1026;SDS011;502;48.746;9.214;2023-07-28T08:22:04;4.90;;;4.40;;
1026;SDS011;502;48.746;9.214;2023-07-28T08:24:51;5.10;;;4.60;;
1026;SDS011;502;48.746;9.214;2023-07-28T08:27:36;5.03;;;4.53;;
1026;SDS011;502;48.746;9.214;2023-07-28T08:30:22;6.87;;;4.50;;
1026;SDS011;502;48.746;9.214;2023-07-28T08:33:07;4.83;;;4.27;;
1026;SDS011;502;48.746;9.214;2023-07-28T08:35:52;5.40;;;4.90;;
1026;SDS011;502;48.746;9.214;2023-07-28T08:38:37;5.00;;;4.10;;
1026;SDS011;502;48.746;9.214;2023-07-28T08:41:24;4.10;;;3.70;;
1026;SDS011;502;48.746;9.214;2023-07-28T08:44:09;4.50;;;4.10;;
1026;SDS011;502;48.746;9.214;2023-07-28T08:46:55;3.90;;;3.60;;
1026;SDS011;502;48.746;9.214;2023-07-28T08:49:40;3.60;;;3.20;;
1026;SDS011;502;48.746;9.214;2023-07-28T08:52:25;4.23;;;3.80;;
1026;SDS011;502;48.746;9.214;2023-07-28T08:55:11;3.97;;;3.57;;
1026;SDS011;502;48.746;9.214;2023-07-28T08:58:01;4.00;;;3.43;;
1026;SDS011;502;48.746;9.214;2023-07-28T09:00:59;4.60;;;4.10;;
1026;SDS011;502;48.746;9.214;2023-07-28T09:03:44;7.30;;;5.03;;
1026;SDS011;502;48.746;9.214;2023-07-28T09:06:31;5.30;;;4.63;;
1026;SDS011;502;48.746;9.214;2023-07-28T09:09:18;6.10;;;4.87;;
1026;SDS011;502;48.746;9.214;2023-07-28T09:12:06;4.90;;;4.27;;
1026;SDS011;502;48.746;9.214;2023-07-28T09:14:56;5.10;;;4.60;;
1026;SDS011;502;48.746;9.214;2023-07-28T09:17:42;5.23;;;4.50;;
1026;SDS011;502;48.746;9.214;2023-07-28T09:20:33;5.27;;;4.77;;
1026;SDS011;502;48.746;9.214;2023-07-28T09:23:24;5.13;;;4.73;;
1026;SDS011;502;48.746;9.214;2023-07-28T09:26:12;5.13;;;4.57;;
1026;SDS011;502;48.746;9.214;2023-07-28T09:28:59;5.70;;;5.20;;
1026;SDS011;502;48.746;9.214;2023-07-28T09:31:46;6.33;;;5.60;;
1026;SDS011;502;48.746;9.214;2023-07-28T09:34:32;6.30;;;4.73;;
1026;SDS011;502;48.746;9.214;2023-07-28T09:37:18;6.40;;;5.77;;
1026;SDS011;502;48.746;9.214;2023-07-28T09:40:11;6.10;;;5.50;;
1026;SDS011;502;48.746;9.214;2023-07-28T09:42:56;6.43;;;5.80;;
1026;SDS011;502;48.746;9.214;2023-07-28T09:45:42;6.10;;;5.50;;
1026;SDS011;502;48.746;9.214;2023-07-28T09:48:28;6.80;;;5.70;;
1026;SDS011;502;48.746;9.214;2023-07-28T09:51:17;5.60;;;5.10;;
1026;SDS011;502;48.746;9.214;2023-07-28T09:54:04;5.67;;;4.93;;
1026;SDS011;502;48.746;9.214;2023-07-28T09:56:50;6.57;;;5.27;;
1026;SDS011;502;48.746;9.214;2023-07-28T09:59:38;5.73;;;5.13;;
1026;SDS011;502;48.746;9.214;2023-07-28T10:02:24;6.83;;;5.00;;
1026;SDS011;502;48.746;9.214;2023-07-28T10:05:11;5.47;;;4.93;;
1026;SDS011;502;48.746;9.214;2023-07-28T10:07:58;6.43;;;4.40;;
1026;SDS011;502;48.746;9.214;2023-07-28T10:10:44;5.43;;;4.53;;
1026;SDS011;502;48.746;9.214;2023-07-28T10:13:33;5.57;;;4.40;;
1026;SDS011;502;48.746;9.214;2023-07-28T10:16:30;8.77;;;5.00;;
1026;SDS011;502;48.746;9.214;2023-07-28T10:19:19;6.33;;;4.80;;
1026;SDS011;502;48.746;9.214;2023-07-28T10:22:07;5.87;;;5.30;;
1026;SDS011;502;48.746;9.214;2023-07-28T10:24:55;5.60;;;5.10;;
1026;SDS011;502;48.746;9.214;2023-07-28T10:27:43;5.17;;;4.47;;
1026;SDS011;502;48.746;9.214;2023-07-28T10:30:34;5.80;;;4.43;;
1026;SDS011;502;48.746;9.214;2023-07-28T10:33:31;4.70;;;4.30;;
1026;SDS011;502;48.746;9.214;2023-07-28T10:36:17;5.17;;;3.93;;
1026;SDS011;502;48.746;9.214;2023-07-28T10:39:13;4.30;;;3.90;;
1026;SDS011;502;48.746;9.214;2023-07-28T10:45:04;3.13;;;2.83;;
1026;SDS011;502;48.746;9.214;2023-07-28T10:47:53;3.90;;;3.03;;
1026;SDS011;502;48.746;9.214;2023-07-28T10:50:40;3.47;;;2.50;;
1026;SDS011;502;48.746;9.214;2023-07-28T10:53:25;3.23;;;2.60;;
1026;SDS011;502;48.746;9.214;2023-07-28T10:56:12;3.30;;;3.00;;
1026;SDS011;502;48.746;9.214;2023-07-28T10:58:58;2.30;;;2.10;;
1026;SDS011;502;48.746;9.214;2023-07-28T11:01:44;2.23;;;2.03;;
1026;SDS011;502;48.746;9.214;2023-07-28T11:04:29;2.57;;;1.70;;
1026;SDS011;502;48.746;9.214;2023-07-28T11:07:15;2.00;;;1.70;;
1026;SDS011;502;48.746;9.214;2023-07-28T11:10:00;1.77;;;1.57;;
1026;SDS011;502;48.746;9.214;2023-07-28T11:12:48;1.90;;;1.40;;
1026;SDS011;502;48.746;9.214;2023-07-28T11:15:35;2.43;;;1.47;;
1026;SDS011;502;48.746;9.214;2023-07-28T11:18:20;1.80;;;1.30;;
1026;SDS011;502;48.746;9.214;2023-07-28T11:21:05;2.27;;;1.30;;
1026;SDS011;502;48.746;9.214;2023-07-28T11:23:51;2.23;;;1.93;;
1026;SDS011;502;48.746;9.214;2023-07-28T11:26:38;4.50;;;1.67;;
1026;SDS011;502;48.746;9.214;2023-07-28T11:29:25;1.83;;;1.50;;
1026;SDS011;502;48.746;9.214;2023-07-28T11:32:11;1.70;;;1.30;;
1026;SDS011;502;48.746;9.214;2023-07-28T11:35:02;1.67;;;1.30;;
1026;SDS011;502;48.746;9.214;2023-07-28T11:37:49;2.50;;;1.50;;
1026;SDS011;502;48.746;9.214;2023-07-28T11:40:36;2.03;;;1.60;;
1026;SDS011;502;48.746;9.214;2023-07-28T11:43:22;2.33;;;1.70;;
1026;SDS011;502;48.746;9.214;2023-07-28T11:49:18;3.83;;;1.63;;
1026;SDS011;502;48.746;9.214;2023-07-28T11:52:06;3.70;;;3.00;;
1026;SDS011;502;48.746;9.214;2023-07-28T11:54:52;2.80;;;1.87;;
1026;SDS011;502;48.746;9.214;2023-07-28T11:57:37;2.43;;;1.80;;
1026;SDS011;502;48.746;9.214;2023-07-28T12:00:28;2.03;;;1.83;;
1026;SDS011;502;48.746;9.214;2023-07-28T12:03:15;3.07;;;2.30;;
1026;SDS011;502;48.746;9.214;2023-07-28T12:06:03;2.30;;;2.10;;
1026;SDS011;502;48.746;9.214;2023-07-28T12:09:03;3.63;;;2.50;;
1026;SDS011;502;48.746;9.214;2023-07-28T12:11:49;3.70;;;2.57;;
1026;SDS011;502;48.746;9.214;2023-07-28T12:14:35;2.97;;;2.40;;
1026;SDS011;502;48.746;9.214;2023-07-28T12:17:20;3.37;;;2.40;;
1026;SDS011;502;48.746;9.214;2023-07-28T12:20:09;4.60;;;3.10;;
1026;SDS011;502;48.746;9.214;2023-07-28T12:22:55;3.90;;;2.63;;
1026;SDS011;502;48.746;9.214;2023-07-28T12:25:41;3.63;;;2.63;;
1026;SDS011;502;48.746;9.214;2023-07-28T12:28:27;3.63;;;3.03;;
1026;SDS011;502;48.746;9.214;2023-07-28T12:31:12;3.60;;;2.80;;
1026;SDS011;502;48.746;9.214;2023-07-28T12:33:58;3.47;;;2.90;;
1026;SDS011;502;48.746;9.214;2023-07-28T12:36:45;3.33;;;3.03;;
1026;SDS011;502;48.746;9.214;2023-07-28T12:39:30;2.50;;;2.30;;
1026;SDS011;502;48.746;9.214;2023-07-28T12:42:16;4.10;;;3.43;;
1026;SDS011;502;48.746;9.214;2023-07-28T12:45:01;3.93;;;2.60;;
1026;SDS011;502;48.746;9.214;2023-07-28T12:47:48;4.50;;;2.87;;
1026;SDS011;502;48.746;9.214;2023-07-28T12:50:34;3.43;;;2.97;;
1026;SDS011;502;48.746;9.214;2023-07-28T12:53:20;4.30;;;2.57;;
1026;SDS011;502;48.746;9.214;2023-07-28T12:56:06;3.00;;;2.70;;
1026;SDS011;502;48.746;9.214;2023-07-28T12:58:51;3.00;;;2.70;;
1026;SDS011;502;48.746;9.214;2023-07-28T13:01:36;2.93;;;2.70;;
1026;SDS011;502;48.746;9.214;2023-07-28T13:04:22;3.20;;;2.60;;
1026;SDS011;502;48.746;9.214;2023-07-28T13:07:07;2.83;;;2.53;;
1026;SDS011;502;48.746;9.214;2023-07-28T13:09:54;3.60;;;3.10;;
1026;SDS011;502;48.746;9.214;2023-07-28T13:12:39;2.87;;;2.57;;
1026;SDS011;502;48.746;9.214;2023-07-28T13:15:25;5.60;;;3.07;;
1026;SDS011;502;48.746;9.214;2023-07-28T13:18:10;6.50;;;2.77;;
1026;SDS011;502;48.746;9.214;2023-07-28T13:20:55;3.07;;;2.77;;
1026;SDS011;502;48.746;9.214;2023-07-28T13:23:40;3.13;;;2.83;;
1026;SDS011;502;48.746;9.214;2023-07-28T13:26:27;3.00;;;2.70;;
1026;SDS011;502;48.746;9.214;2023-07-28T13:29:13;4.40;;;3.10;;
1026;SDS011;502;48.746;9.214;2023-07-28T13:31:58;3.10;;;2.80;;
1026;SDS011;502;48.746;9.214;2023-07-28T13:34:44;3.20;;;2.80;;
1026;SDS011;502;48.746;9.214;2023-07-28T13:37:30;3.20;;;2.80;;
1026;SDS011;502;48.746;9.214;2023-07-28T13:40:15;3.00;;;2.53;;
1026;SDS011;502;48.746;9.214;2023-07-28T13:43:02;3.90;;;3.23;;
1026;SDS011;502;48.746;9.214;2023-07-28T13:45:47;3.70;;;3.30;;
1026;SDS011;502;48.746;9.214;2023-07-28T13:48:32;2.80;;;2.50;;
1026;SDS011;502;48.746;9.214;2023-07-28T13:51:19;2.80;;;2.57;;
1026;SDS011;502;48.746;9.214;2023-07-28T13:54:05;3.23;;;2.50;;
1026;SDS011;502;48.746;9.214;2023-07-28T13:56:50;3.97;;;3.23;;
1026;SDS011;502;48.746;9.214;2023-07-28T13:59:37;3.30;;;2.97;;
1026;SDS011;502;48.746;9.214;2023-07-28T14:02:22;6.50;;;2.90;;
1026;SDS011;502;48.746;9.214;2023-07-28T14:05:08;3.60;;;2.93;;
1026;SDS011;502;48.746;9.214;2023-07-28T14:07:53;4.57;;;3.20;;
1026;SDS011;502;48.746;9.214;2023-07-28T14:10:42;4.00;;;3.10;;
1026;SDS011;502;48.746;9.214;2023-07-28T14:13:29;3.60;;;3.00;;
1026;SDS011;502;48.746;9.214;2023-07-28T14:16:16;3.13;;;2.83;;
1026;SDS011;502;48.746;9.214;2023-07-28T14:19:02;4.57;;;3.33;;
1026;SDS011;502;48.746;9.214;2023-07-28T14:21:49;4.70;;;3.50;;
1026;SDS011;502;48.746;9.214;2023-07-28T14:24:34;4.30;;;3.63;;
1026;SDS011;502;48.746;9.214;2023-07-28T14:27:19;3.80;;;3.30;;
1026;SDS011;502;48.746;9.214;2023-07-28T14:30:06;4.30;;;3.90;;
1026;SDS011;502;48.746;9.214;2023-07-28T14:32:53;3.50;;;3.20;;
1026;SDS011;502;48.746;9.214;2023-07-28T14:35:38;4.70;;;4.20;;
1026;SDS011;502;48.746;9.214;2023-07-28T14:38:23;4.90;;;4.10;;
1026;SDS011;502;48.746;9.214;2023-07-28T14:41:09;4.97;;;4.47;;
1026;SDS011;502;48.746;9.214;2023-07-28T14:43:54;5.80;;;4.10;;
1026;SDS011;502;48.746;9.214;2023-07-28T14:46:39;4.93;;;3.73;;
1026;SDS011;502;48.746;9.214;2023-07-28T14:49:26;3.90;;;3.57;;
1026;SDS011;502;48.746;9.214;2023-07-28T14:52:11;4.67;;;3.83;;
1026;SDS011;502;48.746;9.214;2023-07-28T14:54:57;3.83;;;3.43;;
1026;SDS011;502;48.746;9.214;2023-07-28T14:57:42;4.20;;;3.80;;
1026;SDS011;502;48.746;9.214;2023-07-28T15:00:27;4.37;;;3.97;;
1026;SDS011;502;48.746;9.214;2023-07-28T15:03:13;4.53;;;4.13;;
1026;SDS011;502;48.746;9.214;2023-07-28T15:05:59;3.73;;;3.43;;
1026;SDS011;502;48.746;9.214;2023-07-28T15:08:45;4.17;;;3.77;;
1026;SDS011;502;48.746;9.214;2023-07-28T15:11:31;3.70;;;3.27;;
1026;SDS011;502;48.746;9.214;2023-07-28T15:14:17;5.13;;;3.67;;
1026;SDS011;502;48.746;9.214;2023-07-28T15:17:02;5.80;;;4.17;;
1026;SDS011;502;48.746;9.214;2023-07-28T15:19:47;4.23;;;3.83;;
1026;SDS011;502;48.746;9.214;2023-07-28T15:22:34;4.17;;;3.77;;
1026;SDS011;502;48.746;9.214;2023-07-28T15:25:19;4.13;;;3.43;;
1026;SDS011;502;48.746;9.214;2023-07-28T15:28:05;4.67;;;3.90;;
1026;SDS011;502;48.746;9.214;2023-07-28T15:30:50;4.10;;;3.60;;
1026;SDS011;502;48.746;9.214;2023-07-28T15:33:39;4.77;;;3.93;;
1026;SDS011;502;48.746;9.214;2023-07-28T15:36:24;4.30;;;3.53;;
1026;SDS011;502;48.746;9.214;2023-07-28T15:39:11;4.93;;;4.43;;
1026;SDS011;502;48.746;9.214;2023-07-28T15:41:57;4.10;;;3.70;;
1026;SDS011;502;48.746;9.214;2023-07-28T15:44:42;5.73;;;3.93;;
1026;SDS011;502;48.746;9.214;2023-07-28T15:47:27;4.57;;;4.03;;
1026;SDS011;502;48.746;9.214;2023-07-28T15:50:16;5.10;;;4.60;;
1026;SDS011;502;48.746;9.214;2023-07-28T15:53:02;5.33;;;4.70;;
1026;SDS011;502;48.746;9.214;2023-07-28T15:55:48;5.33;;;4.50;;
1026;SDS011;502;48.746;9.214;2023-07-28T15:58:33;4.60;;;4.20;;
1026;SDS011;502;48.746;9.214;2023-07-28T16:01:19;5.53;;;4.67;;
1026;SDS011;502;48.746;9.214;2023-07-28T16:04:04;4.70;;;4.20;;
1026;SDS011;502;48.746;9.214;2023-07-28T16:06:50;8.30;;;5.50;;
1026;SDS011;502;48.746;9.214;2023-07-28T16:09:36;5.93;;;5.43;;
1026;SDS011;502;48.746;9.214;2023-07-28T16:12:23;4.87;;;4.47;;
1026;SDS011;502;48.746;9.214;2023-07-28T16:15:08;6.90;;;5.23;;
1026;SDS011;502;48.746;9.214;2023-07-28T16:17:53;5.23;;;4.80;;
1026;SDS011;502;48.746;9.214;2023-07-28T16:20:39;7.20;;;4.57;;
1026;SDS011;502;48.746;9.214;2023-07-28T16:23:24;5.00;;;4.50;;
1026;SDS011;502;48.746;9.214;2023-07-28T16:26:10;5.37;;;4.87;;
1026;SDS011;502;48.746;9.214;2023-07-28T16:28:56;5.20;;;4.60;;
1026;SDS011;502;48.746;9.214;2023-07-28T16:31:44;6.50;;;5.90;;
1026;SDS011;502;48.746;9.214;2023-07-28T16:34:30;6.30;;;5.70;;
1026;SDS011;502;48.746;9.214;2023-07-28T16:37:15;6.07;;;5.47;;
1026;SDS011;502;48.746;9.214;2023-07-28T16:40:01;7.00;;;6.30;;
1026;SDS011;502;48.746;9.214;2023-07-28T16:42:46;6.43;;;5.80;;
1026;SDS011;502;48.746;9.214;2023-07-28T16:45:32;5.60;;;5.10;;
1026;SDS011;502;48.746;9.214;2023-07-28T16:48:23;6.87;;;6.17;;
1026;SDS011;502;48.746;9.214;2023-07-28T16:51:09;6.77;;;6.17;;
1026;SDS011;502;48.746;9.214;2023-07-28T16:53:54;7.50;;;6.80;;
1026;SDS011;502;48.746;9.214;2023-07-28T16:56:40;7.50;;;6.80;;
1026;SDS011;502;48.746;9.214;2023-07-28T16:59:25;6.60;;;5.97;;
1026;SDS011;502;48.746;9.214;2023-07-28T17:02:11;7.67;;;7.03;;
1026;SDS011;502;48.746;9.214;2023-07-28T17:04:57;6.73;;;6.13;;
1026;SDS011;502;48.746;9.214;2023-07-28T17:07:42;8.07;;;5.93;;
1026;SDS011;502;48.746;9.214;2023-07-28T17:10:28;5.90;;;5.40;;
1026;SDS011;502;48.746;9.214;2023-07-28T17:13:14;8.03;;;5.80;;
1026;SDS011;502;48.746;9.214;2023-07-28T17:16:00;6.27;;;5.60;;
1026;SDS011;502;48.746;9.214;2023-07-28T17:18:46;8.70;;;6.80;;
1026;SDS011;502;48.746;9.214;2023-07-28T17:21:32;6.20;;;5.70;;
1026;SDS011;502;48.746;9.214;2023-07-28T17:24:17;6.80;;;6.10;;
1026;SDS011;502;48.746;9.214;2023-07-28T17:27:03;5.10;;;4.70;;
1026;SDS011;502;48.746;9.214;2023-07-28T17:29:48;8.30;;;5.60;;
1026;SDS011;502;48.746;9.214;2023-07-28T17:32:34;6.60;;;6.00;;
1026;SDS011;502;48.746;9.214;2023-07-28T17:35:22;7.10;;;6.50;;
1026;SDS011;502;48.746;9.214;2023-07-28T17:38:07;6.90;;;6.20;;
1026;SDS011;502;48.746;9.214;2023-07-28T17:40:52;7.27;;;6.67;;
1026;SDS011;502;48.746;9.214;2023-07-28T17:43:37;7.17;;;6.03;;
1026;SDS011;502;48.746;9.214;2023-07-28T17:46:24;6.70;;;6.10;;